sensor_id;sensor_type;location;lat;lon;timestamp;temperature;humidity
22456;DHT22;11395;53.204;6.502;2023-03-19T00:01:45;22.80;58.70
22456;DHT22;11395;53.204;6.502;2023-03-19T00:04:12;22.80;58.70
22456;DHT22;11395;53.204;6.502;2023-03-19T00:06:38;22.70;59.30
22456;DHT22;11395;53.204;6.502;2023-03-19T00:09:04;22.70;58.70
22456;DHT22;11395;53.204;6.502;2023-03-19T00:11:30;22.70;58.70
22456;DHT22;11395;53.204;6.502;2023-03-19T00:13:58;22.70;58.70
22456;DHT22;11395;53.204;6.502;2023-03-19T00:16:24;22.70;58.80
22456;DHT22;11395;53.204;6.502;2023-03-19T00:18:50;22.60;58.80
22456;DHT22;11395;53.204;6.502;2023-03-19T00:21:16;22.60;58.80
22456;DHT22;11395;53.204;6.502;2023-03-19T00:23:43;22.60;58.90
22456;DHT22;11395;53.204;6.502;2023-03-19T00:26:09;22.60;58.90
22456;DHT22;11395;53.204;6.502;2023-03-19T00:28:37;22.60;58.90
22456;DHT22;11395;53.204;6.502;2023-03-19T00:31:15;22.50;58.90
22456;DHT22;11395;53.204;6.502;2023-03-19T00:33:42;22.50;58.90
22456;DHT22;11395;53.204;6.502;2023-03-19T00:36:09;22.50;58.90
22456;DHT22;11395;53.204;6.502;2023-03-19T00:38:36;22.50;59.00
22456;DHT22;11395;53.204;6.502;2023-03-19T00:41:03;22.40;59.00
22456;DHT22;11395;53.204;6.502;2023-03-19T00:43:30;22.40;59.70
22456;DHT22;11395;53.204;6.502;2023-03-19T00:45:57;22.40;59.10
22456;DHT22;11395;53.204;6.502;2023-03-19T00:48:24;22.40;59.10
22456;DHT22;11395;53.204;6.502;2023-03-19T00:50:50;22.40;59.20
22456;DHT22;11395;53.204;6.502;2023-03-19T00:53:16;22.30;59.20
22456;DHT22;11395;53.204;6.502;2023-03-19T00:55:43;22.30;59.20
22456;DHT22;11395;53.204;6.502;2023-03-19T00:58:09;22.30;59.20
22456;DHT22;11395;53.204;6.502;2023-03-19T01:00:36;22.20;59.10
22456;DHT22;11395;53.204;6.502;2023-03-19T01:03:04;22.30;59.20
22456;DHT22;11395;53.204;6.502;2023-03-19T01:05:33;22.20;59.20
22456;DHT22;11395;53.204;6.502;2023-03-19T01:08:00;22.20;59.20
22456;DHT22;11395;53.204;6.502;2023-03-19T01:10:32;22.20;59.30
22456;DHT22;11395;53.204;6.502;2023-03-19T01:12:58;22.10;59.20
22456;DHT22;11395;53.204;6.502;2023-03-19T01:15:24;22.10;59.20
22456;DHT22;11395;53.204;6.502;2023-03-19T01:17:51;22.10;59.30
22456;DHT22;11395;53.204;6.502;2023-03-19T01:20:17;22.10;59.20
22456;DHT22;11395;53.204;6.502;2023-03-19T01:22:45;22.10;59.30
22456;DHT22;11395;53.204;6.502;2023-03-19T01:25:13;22.00;59.30
22456;DHT22;11395;53.204;6.502;2023-03-19T01:27:45;22.00;59.30
22456;DHT22;11395;53.204;6.502;2023-03-19T01:30:13;22.00;59.30
22456;DHT22;11395;53.204;6.502;2023-03-19T01:33:09;22.00;59.30
22456;DHT22;11395;53.204;6.502;2023-03-19T01:35:55;22.00;59.40
22456;DHT22;11395;53.204;6.502;2023-03-19T01:38:28;22.00;59.30
22456;DHT22;11395;53.204;6.502;2023-03-19T01:41:00;21.90;59.30
22456;DHT22;11395;53.204;6.502;2023-03-19T01:43:28;21.90;59.30
22456;DHT22;11395;53.204;6.502;2023-03-19T01:46:00;21.90;59.40
22456;DHT22;11395;53.204;6.502;2023-03-19T01:48:51;21.90;59.40
22456;DHT22;11395;53.204;6.502;2023-03-19T01:51:27;21.90;59.40
22456;DHT22;11395;53.204;6.502;2023-03-19T01:54:10;21.90;59.40
22456;DHT22;11395;53.204;6.502;2023-03-19T01:57:08;21.90;59.40
22456;DHT22;11395;53.204;6.502;2023-03-19T01:59:55;21.80;59.30
22456;DHT22;11395;53.204;6.502;2023-03-19T02:02:33;21.80;59.40
22456;DHT22;11395;53.204;6.502;2023-03-19T02:05:12;21.80;59.80
22456;DHT22;11395;53.204;6.502;2023-03-19T02:07:42;21.80;59.50
22456;DHT22;11395;53.204;6.502;2023-03-19T02:10:13;21.80;59.50
22456;DHT22;11395;53.204;6.502;2023-03-19T02:12:40;21.80;59.50
22456;DHT22;11395;53.204;6.502;2023-03-19T02:15:06;21.70;59.50
22456;DHT22;11395;53.204;6.502;2023-03-19T02:17:33;21.70;59.50
22456;DHT22;11395;53.204;6.502;2023-03-19T02:20:16;21.70;59.50
22456;DHT22;11395;53.204;6.502;2023-03-19T02:23:06;21.70;59.60
22456;DHT22;11395;53.204;6.502;2023-03-19T02:28:15;21.70;59.70
22456;DHT22;11395;53.204;6.502;2023-03-19T02:30:44;21.60;59.50
22456;DHT22;11395;53.204;6.502;2023-03-19T02:33:16;21.60;59.60
22456;DHT22;11395;53.204;6.502;2023-03-19T02:35:44;21.60;59.60
22456;DHT22;11395;53.204;6.502;2023-03-19T02:38:14;21.60;59.70
22456;DHT22;11395;53.204;6.502;2023-03-19T02:40:46;21.60;59.60
22456;DHT22;11395;53.204;6.502;2023-03-19T02:43:14;21.60;59.80
22456;DHT22;11395;53.204;6.502;2023-03-19T02:45:41;21.50;59.60
22456;DHT22;11395;53.204;6.502;2023-03-19T02:48:07;21.50;59.70
22456;DHT22;11395;53.204;6.502;2023-03-19T02:50:34;21.50;59.80
22456;DHT22;11395;53.204;6.502;2023-03-19T02:53:00;21.50;59.70
22456;DHT22;11395;53.204;6.502;2023-03-19T02:55:26;21.50;59.80
22456;DHT22;11395;53.204;6.502;2023-03-19T02:57:52;21.50;59.80
22456;DHT22;11395;53.204;6.502;2023-03-19T03:00:20;21.40;59.80
22456;DHT22;11395;53.204;6.502;2023-03-19T03:02:46;21.40;59.80
22456;DHT22;11395;53.204;6.502;2023-03-19T03:05:12;21.40;59.80
22456;DHT22;11395;53.204;6.502;2023-03-19T03:07:39;21.40;59.80
22456;DHT22;11395;53.204;6.502;2023-03-19T03:10:08;21.40;59.80
22456;DHT22;11395;53.204;6.502;2023-03-19T03:12:35;21.40;59.90
22456;DHT22;11395;53.204;6.502;2023-03-19T03:15:01;21.40;59.90
22456;DHT22;11395;53.204;6.502;2023-03-19T03:17:27;21.30;59.80
22456;DHT22;11395;53.204;6.502;2023-03-19T03:19:54;21.30;59.80
22456;DHT22;11395;53.204;6.502;2023-03-19T03:22:20;21.30;59.80
22456;DHT22;11395;53.204;6.502;2023-03-19T03:24:46;21.30;59.90
22456;DHT22;11395;53.204;6.502;2023-03-19T03:27:13;21.30;60.60
22456;DHT22;11395;53.204;6.502;2023-03-19T03:29:39;21.30;59.90
22456;DHT22;11395;53.204;6.502;2023-03-19T03:32:06;21.30;59.90
22456;DHT22;11395;53.204;6.502;2023-03-19T03:34:33;21.30;59.90
22456;DHT22;11395;53.204;6.502;2023-03-19T03:37:00;21.20;59.80
22456;DHT22;11395;53.204;6.502;2023-03-19T03:39:26;21.30;60.00
22456;DHT22;11395;53.204;6.502;2023-03-19T03:41:53;21.20;59.90
22456;DHT22;11395;53.204;6.502;2023-03-19T03:44:19;21.20;59.90
22456;DHT22;11395;53.204;6.502;2023-03-19T03:46:46;21.20;60.00
22456;DHT22;11395;53.204;6.502;2023-03-19T03:49:13;21.20;60.00
22456;DHT22;11395;53.204;6.502;2023-03-19T03:51:39;21.20;60.00
22456;DHT22;11395;53.204;6.502;2023-03-19T03:54:06;21.20;60.00
22456;DHT22;11395;53.204;6.502;2023-03-19T03:56:33;21.10;60.00
22456;DHT22;11395;53.204;6.502;2023-03-19T03:58:59;21.10;60.00
22456;DHT22;11395;53.204;6.502;2023-03-19T04:01:26;21.10;60.00
22456;DHT22;11395;53.204;6.502;2023-03-19T04:03:55;21.10;60.00
22456;DHT22;11395;53.204;6.502;2023-03-19T04:06:23;21.10;60.00
22456;DHT22;11395;53.204;6.502;2023-03-19T04:09:12;21.10;60.00
22456;DHT22;11395;53.204;6.502;2023-03-19T04:11:40;21.10;60.00
22456;DHT22;11395;53.204;6.502;2023-03-19T04:14:07;21.10;60.10
22456;DHT22;11395;53.204;6.502;2023-03-19T04:16:34;21.00;60.00
22456;DHT22;11395;53.204;6.502;2023-03-19T04:19:01;21.00;60.00
22456;DHT22;11395;53.204;6.502;2023-03-19T04:21:27;21.00;60.00
22456;DHT22;11395;53.204;6.502;2023-03-19T04:23:54;21.00;60.10
22456;DHT22;11395;53.204;6.502;2023-03-19T04:26:21;21.00;60.10
22456;DHT22;11395;53.204;6.502;2023-03-19T04:28:48;21.00;60.20
22456;DHT22;11395;53.204;6.502;2023-03-19T04:31:14;20.90;60.10
22456;DHT22;11395;53.204;6.502;2023-03-19T04:33:43;21.00;60.30
22456;DHT22;11395;53.204;6.502;2023-03-19T04:36:10;20.90;60.40
22456;DHT22;11395;53.204;6.502;2023-03-19T04:38:37;20.90;60.20
22456;DHT22;11395;53.204;6.502;2023-03-19T04:41:03;20.90;60.40
22456;DHT22;11395;53.204;6.502;2023-03-19T04:43:32;20.90;60.40
22456;DHT22;11395;53.204;6.502;2023-03-19T04:46:00;21.00;60.40
22456;DHT22;11395;53.204;6.502;2023-03-19T04:48:27;21.00;60.30
22456;DHT22;11395;53.204;6.502;2023-03-19T04:50:55;21.10;60.20
22456;DHT22;11395;53.204;6.502;2023-03-19T04:53:22;21.20;60.20
22456;DHT22;11395;53.204;6.502;2023-03-19T04:55:50;21.30;60.00
22456;DHT22;11395;53.204;6.502;2023-03-19T04:58:18;21.40;60.10
22456;DHT22;11395;53.204;6.502;2023-03-19T05:00:50;21.50;59.70
22456;DHT22;11395;53.204;6.502;2023-03-19T05:03:21;21.60;59.60
22456;DHT22;11395;53.204;6.502;2023-03-19T05:05:48;21.70;59.50
22456;DHT22;11395;53.204;6.502;2023-03-19T05:08:14;21.80;59.40
22456;DHT22;11395;53.204;6.502;2023-03-19T05:10:41;21.80;59.30
22456;DHT22;11395;53.204;6.502;2023-03-19T05:13:07;21.90;59.40
22456;DHT22;11395;53.204;6.502;2023-03-19T05:15:43;21.90;59.20
22456;DHT22;11395;53.204;6.502;2023-03-19T05:18:12;22.00;59.20
22456;DHT22;11395;53.204;6.502;2023-03-19T05:20:42;22.00;59.20
22456;DHT22;11395;53.204;6.502;2023-03-19T05:23:16;22.00;59.20
22456;DHT22;11395;53.204;6.502;2023-03-19T05:25:57;22.10;59.10
22456;DHT22;11395;53.204;6.502;2023-03-19T05:28:44;22.10;58.90
22456;DHT22;11395;53.204;6.502;2023-03-19T05:31:11;22.20;58.70
22456;DHT22;11395;53.204;6.502;2023-03-19T05:33:44;22.30;58.70
22456;DHT22;11395;53.204;6.502;2023-03-19T05:36:11;22.40;58.50
22456;DHT22;11395;53.204;6.502;2023-03-19T05:38:49;22.50;58.40
22456;DHT22;11395;53.204;6.502;2023-03-19T05:41:23;22.60;58.30
22456;DHT22;11395;53.204;6.502;2023-03-19T05:43:57;22.70;58.20
22456;DHT22;11395;53.204;6.502;2023-03-19T05:46:38;22.80;58.00
22456;DHT22;11395;53.204;6.502;2023-03-19T05:49:05;22.90;57.80
22456;DHT22;11395;53.204;6.502;2023-03-19T05:51:31;23.10;57.70
22456;DHT22;11395;53.204;6.502;2023-03-19T05:53:58;23.20;57.70
22456;DHT22;11395;53.204;6.502;2023-03-19T05:56:33;23.30;57.40
22456;DHT22;11395;53.204;6.502;2023-03-19T05:59:19;23.40;57.30
22456;DHT22;11395;53.204;6.502;2023-03-19T06:01:57;23.60;57.20
22456;DHT22;11395;53.204;6.502;2023-03-19T06:04:23;23.70;57.20
22456;DHT22;11395;53.204;6.502;2023-03-19T06:06:50;23.80;57.20
22456;DHT22;11395;53.204;6.502;2023-03-19T06:09:16;23.80;57.10
22456;DHT22;11395;53.204;6.502;2023-03-19T06:11:47;23.90;57.10
22456;DHT22;11395;53.204;6.502;2023-03-19T06:14:33;24.00;57.00
22456;DHT22;11395;53.204;6.502;2023-03-19T06:17:24;24.10;56.90
22456;DHT22;11395;53.204;6.502;2023-03-19T06:19:51;24.20;56.90
22456;DHT22;11395;53.204;6.502;2023-03-19T06:22:17;24.20;56.90
22456;DHT22;11395;53.204;6.502;2023-03-19T06:24:44;24.20;56.80
22456;DHT22;11395;53.204;6.502;2023-03-19T06:27:11;24.20;56.60
22456;DHT22;11395;53.204;6.502;2023-03-19T06:29:37;24.20;56.60
22456;DHT22;11395;53.204;6.502;2023-03-19T06:32:15;24.20;56.50
22456;DHT22;11395;53.204;6.502;2023-03-19T06:34:42;24.20;56.50
22456;DHT22;11395;53.204;6.502;2023-03-19T06:37:08;24.20;56.40
22456;DHT22;11395;53.204;6.502;2023-03-19T06:39:35;24.20;56.30
22456;DHT22;11395;53.204;6.502;2023-03-19T06:42:01;24.20;56.30
22456;DHT22;11395;53.204;6.502;2023-03-19T06:44:27;24.20;56.30
22456;DHT22;11395;53.204;6.502;2023-03-19T06:46:54;24.20;57.00
22456;DHT22;11395;53.204;6.502;2023-03-19T06:49:21;24.20;56.40
22456;DHT22;11395;53.204;6.502;2023-03-19T06:51:47;24.20;56.50
22456;DHT22;11395;53.204;6.502;2023-03-19T06:54:13;24.20;56.30
22456;DHT22;11395;53.204;6.502;2023-03-19T06:56:39;24.20;56.40
22456;DHT22;11395;53.204;6.502;2023-03-19T06:59:06;24.20;56.40
22456;DHT22;11395;53.204;6.502;2023-03-19T07:01:32;24.20;56.40
22456;DHT22;11395;53.204;6.502;2023-03-19T07:03:58;24.20;56.40
22456;DHT22;11395;53.204;6.502;2023-03-19T07:06:24;24.10;56.40
22456;DHT22;11395;53.204;6.502;2023-03-19T07:08:50;24.20;56.50
22456;DHT22;11395;53.204;6.502;2023-03-19T07:11:16;24.10;56.20
22456;DHT22;11395;53.204;6.502;2023-03-19T07:13:43;24.10;56.20
22456;DHT22;11395;53.204;6.502;2023-03-19T07:16:09;24.00;56.00
22456;DHT22;11395;53.204;6.502;2023-03-19T07:18:35;24.00;56.10
22456;DHT22;11395;53.204;6.502;2023-03-19T07:21:03;23.90;56.10
22456;DHT22;11395;53.204;6.502;2023-03-19T07:23:29;23.90;56.20
22456;DHT22;11395;53.204;6.502;2023-03-19T07:25:55;23.90;56.20
22456;DHT22;11395;53.204;6.502;2023-03-19T07:28:22;23.80;56.20
22456;DHT22;11395;53.204;6.502;2023-03-19T07:30:50;23.80;56.20
22456;DHT22;11395;53.204;6.502;2023-03-19T07:33:18;23.80;56.40
22456;DHT22;11395;53.204;6.502;2023-03-19T07:35:45;23.80;56.30
22456;DHT22;11395;53.204;6.502;2023-03-19T07:38:11;23.80;57.00
22456;DHT22;11395;53.204;6.502;2023-03-19T07:40:37;23.80;56.40
22456;DHT22;11395;53.204;6.502;2023-03-19T07:43:04;23.70;56.40
22456;DHT22;11395;53.204;6.502;2023-03-19T07:45:30;23.70;56.40
22456;DHT22;11395;53.204;6.502;2023-03-19T07:47:56;23.70;57.10
22456;DHT22;11395;53.204;6.502;2023-03-19T07:50:22;23.70;56.40
22456;DHT22;11395;53.204;6.502;2023-03-19T07:52:49;23.70;56.40
22456;DHT22;11395;53.204;6.502;2023-03-19T07:55:16;23.70;56.50
22456;DHT22;11395;53.204;6.502;2023-03-19T07:57:43;23.70;56.50
22456;DHT22;11395;53.204;6.502;2023-03-19T08:00:10;23.80;56.50
22456;DHT22;11395;53.204;6.502;2023-03-19T08:02:39;23.80;56.50
22456;DHT22;11395;53.204;6.502;2023-03-19T08:05:06;23.80;56.50
22456;DHT22;11395;53.204;6.502;2023-03-19T08:07:32;23.80;56.20
22456;DHT22;11395;53.204;6.502;2023-03-19T08:09:59;23.80;56.50
22456;DHT22;11395;53.204;6.502;2023-03-19T08:12:25;23.90;56.50
22456;DHT22;11395;53.204;6.502;2023-03-19T08:14:51;24.00;56.50
22456;DHT22;11395;53.204;6.502;2023-03-19T08:17:17;24.00;56.40
22456;DHT22;11395;53.204;6.502;2023-03-19T08:19:44;24.10;56.30
22456;DHT22;11395;53.204;6.502;2023-03-19T08:22:11;24.20;56.30
22456;DHT22;11395;53.204;6.502;2023-03-19T08:24:37;24.20;56.80
22456;DHT22;11395;53.204;6.502;2023-03-19T08:27:04;24.20;56.10
22456;DHT22;11395;53.204;6.502;2023-03-19T08:29:30;24.30;56.00
22456;DHT22;11395;53.204;6.502;2023-03-19T08:31:56;24.30;56.00
22456;DHT22;11395;53.204;6.502;2023-03-19T08:34:23;24.30;55.90
22456;DHT22;11395;53.204;6.502;2023-03-19T08:36:50;24.20;55.90
22456;DHT22;11395;53.204;6.502;2023-03-19T08:39:16;24.30;55.90
22456;DHT22;11395;53.204;6.502;2023-03-19T08:41:43;24.20;55.80
22456;DHT22;11395;53.204;6.502;2023-03-19T08:44:09;24.20;55.80
22456;DHT22;11395;53.204;6.502;2023-03-19T08:46:35;24.20;55.80
22456;DHT22;11395;53.204;6.502;2023-03-19T08:49:05;24.20;55.90
22456;DHT22;11395;53.204;6.502;2023-03-19T08:51:31;23.60;57.30
22456;DHT22;11395;53.204;6.502;2023-03-19T08:54:08;23.50;56.40
22456;DHT22;11395;53.204;6.502;2023-03-19T08:57:24;24.10;57.10
22456;DHT22;11395;53.204;6.502;2023-03-19T09:00:04;24.00;56.20
22456;DHT22;11395;53.204;6.502;2023-03-19T09:02:34;24.10;56.30
22456;DHT22;11395;53.204;6.502;2023-03-19T09:05:41;24.00;56.80
22456;DHT22;11395;53.204;6.502;2023-03-19T09:08:24;23.50;57.00
22456;DHT22;11395;53.204;6.502;2023-03-19T09:11:07;24.00;57.70
22456;DHT22;11395;53.204;6.502;2023-03-19T09:14:09;24.00;56.90
22456;DHT22;11395;53.204;6.502;2023-03-19T09:16:55;23.90;57.00
22456;DHT22;11395;53.204;6.502;2023-03-19T09:19:41;23.90;56.70
22456;DHT22;11395;53.204;6.502;2023-03-19T09:22:32;23.90;56.80
22456;DHT22;11395;53.204;6.502;2023-03-19T09:24:58;23.90;57.10
22456;DHT22;11395;53.204;6.502;2023-03-19T09:27:24;23.90;57.10
22456;DHT22;11395;53.204;6.502;2023-03-19T09:29:51;23.90;57.40
22456;DHT22;11395;53.204;6.502;2023-03-19T09:32:17;23.90;57.70
22456;DHT22;11395;53.204;6.502;2023-03-19T09:34:44;24.00;57.20
22456;DHT22;11395;53.204;6.502;2023-03-19T09:37:19;23.90;56.70
22456;DHT22;11395;53.204;6.502;2023-03-19T09:39:48;23.90;56.50
22456;DHT22;11395;53.204;6.502;2023-03-19T09:45:19;24.30;56.50
22456;DHT22;11395;53.204;6.502;2023-03-19T09:48:04;24.30;56.90
22456;DHT22;11395;53.204;6.502;2023-03-19T09:50:34;24.90;56.60
22456;DHT22;11395;53.204;6.502;2023-03-19T09:53:56;24.40;56.70
22456;DHT22;11395;53.204;6.502;2023-03-19T09:57:19;24.60;56.90
22456;DHT22;11395;53.204;6.502;2023-03-19T10:00:24;24.40;56.60
22456;DHT22;11395;53.204;6.502;2023-03-19T10:06:44;24.40;56.10
22456;DHT22;11395;53.204;6.502;2023-03-19T10:12:37;24.40;56.20
22456;DHT22;11395;53.204;6.502;2023-03-19T10:15:36;24.50;56.90
22456;DHT22;11395;53.204;6.502;2023-03-19T10:21:59;24.60;56.40
22456;DHT22;11395;53.204;6.502;2023-03-19T10:24:55;25.20;56.60
22456;DHT22;11395;53.204;6.502;2023-03-19T10:27:35;25.20;57.20
22456;DHT22;11395;53.204;6.502;2023-03-19T10:30:37;24.60;56.50
22456;DHT22;11395;53.204;6.502;2023-03-19T10:33:28;24.30;56.20
22456;DHT22;11395;53.204;6.502;2023-03-19T10:36:32;24.30;56.40
22456;DHT22;11395;53.204;6.502;2023-03-19T10:39:32;24.20;56.30
22456;DHT22;11395;53.204;6.502;2023-03-19T10:45:33;24.10;56.20
22456;DHT22;11395;53.204;6.502;2023-03-19T10:51:25;24.30;56.30
22456;DHT22;11395;53.204;6.502;2023-03-19T10:54:32;25.50;57.00
22456;DHT22;11395;53.204;6.502;2023-03-19T11:01:31;24.30;56.20
22456;DHT22;11395;53.204;6.502;2023-03-19T11:04:32;24.10;56.30
22456;DHT22;11395;53.204;6.502;2023-03-19T11:10:25;24.40;56.60
22456;DHT22;11395;53.204;6.502;2023-03-19T11:13:22;25.00;57.10
22456;DHT22;11395;53.204;6.502;2023-03-19T11:16:01;24.00;56.80
22456;DHT22;11395;53.204;6.502;2023-03-19T11:18:49;24.50;56.90
22456;DHT22;11395;53.204;6.502;2023-03-19T11:21:33;23.90;56.70
22456;DHT22;11395;53.204;6.502;2023-03-19T11:24:19;23.90;56.90
22456;DHT22;11395;53.204;6.502;2023-03-19T11:26:54;23.70;57.20
22456;DHT22;11395;53.204;6.502;2023-03-19T11:29:41;23.90;57.20
22456;DHT22;11395;53.204;6.502;2023-03-19T11:37:55;23.90;57.20
22456;DHT22;11395;53.204;6.502;2023-03-19T11:53:17;23.80;56.40
22456;DHT22;11395;53.204;6.502;2023-03-19T12:05:48;23.80;56.30
22456;DHT22;11395;53.204;6.502;2023-03-19T12:14:45;24.90;57.00
22456;DHT22;11395;53.204;6.502;2023-03-19T12:37:22;23.80;56.70
22456;DHT22;11395;53.204;6.502;2023-03-19T12:54:13;23.80;56.80
22456;DHT22;11395;53.204;6.502;2023-03-19T13:00:00;23.90;56.80
22456;DHT22;11395;53.204;6.502;2023-03-19T13:02:55;23.90;56.80
22456;DHT22;11395;53.204;6.502;2023-03-19T13:08:51;24.00;56.70
22456;DHT22;11395;53.204;6.502;2023-03-19T13:20:30;24.00;56.60
22456;DHT22;11395;53.204;6.502;2023-03-19T13:23:02;24.00;56.60
22456;DHT22;11395;53.204;6.502;2023-03-19T13:25:37;24.00;56.60
22456;DHT22;11395;53.204;6.502;2023-03-19T13:28:26;24.00;56.50
22456;DHT22;11395;53.204;6.502;2023-03-19T13:31:04;24.00;56.50
22456;DHT22;11395;53.204;6.502;2023-03-19T13:33:35;23.90;56.50
22456;DHT22;11395;53.204;6.502;2023-03-19T13:36:08;23.90;56.50
22456;DHT22;11395;53.204;6.502;2023-03-19T13:38:44;23.90;56.60
22456;DHT22;11395;53.204;6.502;2023-03-19T13:46:47;23.90;56.60
22456;DHT22;11395;53.204;6.502;2023-03-19T13:49:29;23.80;56.60
22456;DHT22;11395;53.204;6.502;2023-03-19T13:54:45;23.80;56.70
22456;DHT22;11395;53.204;6.502;2023-03-19T13:59:46;23.70;56.70
22456;DHT22;11395;53.204;6.502;2023-03-19T14:14:05;23.70;57.50
22456;DHT22;11395;53.204;6.502;2023-03-19T14:16:37;23.70;57.10
22456;DHT22;11395;53.204;6.502;2023-03-19T14:19:11;23.70;57.10
22456;DHT22;11395;53.204;6.502;2023-03-19T14:21:47;23.80;57.20
22456;DHT22;11395;53.204;6.502;2023-03-19T14:24:36;23.80;57.10
22456;DHT22;11395;53.204;6.502;2023-03-19T14:27:29;23.90;57.10
22456;DHT22;11395;53.204;6.502;2023-03-19T14:32:50;24.00;57.20
22456;DHT22;11395;53.204;6.502;2023-03-19T14:35:20;24.10;57.40
22456;DHT22;11395;53.204;6.502;2023-03-19T14:37:50;24.10;57.30
22456;DHT22;11395;53.204;6.502;2023-03-19T14:40:25;24.20;57.40
22456;DHT22;11395;53.204;6.502;2023-03-19T14:42:59;24.20;57.40
22456;DHT22;11395;53.204;6.502;2023-03-19T14:51:27;24.30;57.20
22456;DHT22;11395;53.204;6.502;2023-03-19T14:53:51;24.30;57.20
22456;DHT22;11395;53.204;6.502;2023-03-19T14:56:30;24.30;57.10
22456;DHT22;11395;53.204;6.502;2023-03-19T14:58:58;24.30;56.60
22456;DHT22;11395;53.204;6.502;2023-03-19T15:01:31;24.30;56.40
22456;DHT22;11395;53.204;6.502;2023-03-19T15:04:00;24.30;56.50
22456;DHT22;11395;53.204;6.502;2023-03-19T15:06:34;24.20;56.40
22456;DHT22;11395;53.204;6.502;2023-03-19T15:09:04;24.20;56.40
22456;DHT22;11395;53.204;6.502;2023-03-19T15:15:16;23.90;56.30
22456;DHT22;11395;53.204;6.502;2023-03-19T15:17:40;24.10;56.50
22456;DHT22;11395;53.204;6.502;2023-03-19T15:53:51;23.70;57.00
22456;DHT22;11395;53.204;6.502;2023-03-19T15:56:19;23.60;57.20
22456;DHT22;11395;53.204;6.502;2023-03-19T15:58:48;23.60;57.30
22456;DHT22;11395;53.204;6.502;2023-03-19T16:01:16;23.60;57.40
22456;DHT22;11395;53.204;6.502;2023-03-19T16:04:05;23.60;57.50
22456;DHT22;11395;53.204;6.502;2023-03-19T16:06:36;23.60;57.40
22456;DHT22;11395;53.204;6.502;2023-03-19T16:11:54;23.60;57.50
22456;DHT22;11395;53.204;6.502;2023-03-19T16:14:42;23.50;57.50
22456;DHT22;11395;53.204;6.502;2023-03-19T16:17:12;23.50;57.70
22456;DHT22;11395;53.204;6.502;2023-03-19T16:19:53;23.60;57.80
22456;DHT22;11395;53.204;6.502;2023-03-19T16:22:28;23.60;57.80
22456;DHT22;11395;53.204;6.502;2023-03-19T16:24:56;23.60;57.90
22456;DHT22;11395;53.204;6.502;2023-03-19T16:27:39;23.70;57.80
22456;DHT22;11395;53.204;6.502;2023-03-19T16:30:32;23.80;57.80
22456;DHT22;11395;53.204;6.502;2023-03-19T16:33:00;23.80;57.80
22456;DHT22;11395;53.204;6.502;2023-03-19T16:35:28;23.90;57.70
22456;DHT22;11395;53.204;6.502;2023-03-19T17:06:20;25.20;57.70
22456;DHT22;11395;53.204;6.502;2023-03-19T17:08:49;24.00;57.70
22456;DHT22;11395;53.204;6.502;2023-03-19T17:11:33;24.00;57.20
22456;DHT22;11395;53.204;6.502;2023-03-19T17:14:01;24.00;57.10
22456;DHT22;11395;53.204;6.502;2023-03-19T17:16:28;24.00;57.00
22456;DHT22;11395;53.204;6.502;2023-03-19T17:18:55;24.00;57.30
22456;DHT22;11395;53.204;6.502;2023-03-19T17:21:30;24.00;57.50
22456;DHT22;11395;53.204;6.502;2023-03-19T17:24:00;24.00;57.30
22456;DHT22;11395;53.204;6.502;2023-03-19T17:26:28;23.90;57.30
22456;DHT22;11395;53.204;6.502;2023-03-19T17:28:55;23.90;57.30
22456;DHT22;11395;53.204;6.502;2023-03-19T17:31:23;23.90;57.40
22456;DHT22;11395;53.204;6.502;2023-03-19T17:33:50;23.90;57.50
22456;DHT22;11395;53.204;6.502;2023-03-19T17:36:18;23.90;57.50
22456;DHT22;11395;53.204;6.502;2023-03-19T17:38:44;23.90;57.60
22456;DHT22;11395;53.204;6.502;2023-03-19T17:41:16;23.80;57.70
22456;DHT22;11395;53.204;6.502;2023-03-19T17:43:49;23.80;57.80
22456;DHT22;11395;53.204;6.502;2023-03-19T17:46:24;23.80;57.70
22456;DHT22;11395;53.204;6.502;2023-03-19T17:48:51;23.80;58.00
22456;DHT22;11395;53.204;6.502;2023-03-19T17:51:24;23.70;58.00
22456;DHT22;11395;53.204;6.502;2023-03-19T17:53:53;23.70;58.70
22456;DHT22;11395;53.204;6.502;2023-03-19T17:56:22;23.70;58.70
22456;DHT22;11395;53.204;6.502;2023-03-19T17:58:51;23.70;58.20
22456;DHT22;11395;53.204;6.502;2023-03-19T18:01:23;23.50;57.90
22456;DHT22;11395;53.204;6.502;2023-03-19T18:03:51;23.70;58.20
22456;DHT22;11395;53.204;6.502;2023-03-19T18:06:21;23.60;58.00
22456;DHT22;11395;53.204;6.502;2023-03-19T18:08:48;23.60;58.00
22456;DHT22;11395;53.204;6.502;2023-03-19T18:11:15;23.60;58.00
22456;DHT22;11395;53.204;6.502;2023-03-19T18:13:42;23.60;58.00
22456;DHT22;11395;53.204;6.502;2023-03-19T18:16:20;23.60;58.00
22456;DHT22;11395;53.204;6.502;2023-03-19T18:18:49;23.60;58.10
22456;DHT22;11395;53.204;6.502;2023-03-19T18:21:16;23.60;58.20
22456;DHT22;11395;53.204;6.502;2023-03-19T18:23:42;23.60;58.30
22456;DHT22;11395;53.204;6.502;2023-03-19T18:26:09;23.60;58.30
22456;DHT22;11395;53.204;6.502;2023-03-19T18:28:37;23.60;58.30
22456;DHT22;11395;53.204;6.502;2023-03-19T18:31:04;23.70;58.30
22456;DHT22;11395;53.204;6.502;2023-03-19T18:33:36;23.70;58.30
22456;DHT22;11395;53.204;6.502;2023-03-19T18:36:02;23.70;58.30
22456;DHT22;11395;53.204;6.502;2023-03-19T18:38:29;23.80;58.20
22456;DHT22;11395;53.204;6.502;2023-03-19T18:40:55;23.80;58.20
22456;DHT22;11395;53.204;6.502;2023-03-19T18:43:21;23.80;58.20
22456;DHT22;11395;53.204;6.502;2023-03-19T18:45:50;23.80;58.20
22456;DHT22;11395;53.204;6.502;2023-03-19T18:48:24;23.80;58.10
22456;DHT22;11395;53.204;6.502;2023-03-19T18:50:51;23.90;58.10
22456;DHT22;11395;53.204;6.502;2023-03-19T18:53:18;23.90;58.00
22456;DHT22;11395;53.204;6.502;2023-03-19T18:55:45;23.80;58.00
22456;DHT22;11395;53.204;6.502;2023-03-19T18:58:23;23.90;58.10
22456;DHT22;11395;53.204;6.502;2023-03-19T19:00:52;23.90;58.20
22456;DHT22;11395;53.204;6.502;2023-03-19T19:03:21;23.90;58.10
22456;DHT22;11395;53.204;6.502;2023-03-19T19:05:53;23.90;58.10
22456;DHT22;11395;53.204;6.502;2023-03-19T19:08:21;23.90;58.10
22456;DHT22;11395;53.204;6.502;2023-03-19T19:10:53;23.80;58.10
22456;DHT22;11395;53.204;6.502;2023-03-19T19:13:23;23.80;58.00
22456;DHT22;11395;53.204;6.502;2023-03-19T19:15:51;23.80;58.00
22456;DHT22;11395;53.204;6.502;2023-03-19T19:18:19;23.80;57.90
22456;DHT22;11395;53.204;6.502;2023-03-19T19:20:48;23.80;58.00
22456;DHT22;11395;53.204;6.502;2023-03-19T19:23:15;23.80;58.00
22456;DHT22;11395;53.204;6.502;2023-03-19T19:25:43;23.80;58.00
22456;DHT22;11395;53.204;6.502;2023-03-19T19:28:24;23.80;58.10
22456;DHT22;11395;53.204;6.502;2023-03-19T19:30:53;23.80;58.10
22456;DHT22;11395;53.204;6.502;2023-03-19T19:33:24;23.80;58.10
22456;DHT22;11395;53.204;6.502;2023-03-19T19:35:51;23.70;58.10